Time;durP1;ratioP1;P1;durP2;ratioP2;P2;SDS_P1;SDS_P2;PMS_P1;PMS_P2;Temp;Humidity;BMP_temperature;BMP_pressure;BME280_temperature;BME280_humidity;BME280_pressure;Samples;Min_cycle;Max_cycle;Signal;HPM_P1;HPM_P2
2021/07/20 00:02:44;;;;;;;19.57;11.70;;;20.20;64.00;;;;;;4999272;28;20422;-95
2021/07/20 00:05:12;;;;;;;17.90;9.73;;;20.10;63.80;;;;;;4999081;28;20462;-96
2021/07/20 00:07:41;;;;;;;18.70;11.07;;;20.10;63.90;;;;;;4999084;28;20156;-94
2021/07/20 00:10:12;;;;;;;19.80;10.68;;;20.00;63.90;;;;;;4998883;28;20199;-96
2021/07/20 00:12:38;;;;;;;22.20;12.27;;;20.00;64.10;;;;;;4999650;28;20168;-95
2021/07/20 00:15:06;;;;;;;14.97;9.57;;;20.00;64.20;;;;;;4999442;28;20182;-96
2021/07/20 00:17:32;;;;;;;21.63;10.77;;;20.00;64.10;;;;;;4999406;28;20160;-96
2021/07/20 00:19:58;;;;;;;18.07;10.20;;;19.90;64.30;;;;;;4999318;28;20200;-96
2021/07/20 00:22:27;;;;;;;19.80;11.83;;;20.00;64.30;;;;;;4999345;28;20423;-96
2021/07/20 00:24:53;;;;;;;12.82;9.93;;;20.00;64.10;;;;;;4983475;28;20479;-95
2021/07/20 00:27:18;;;;;;;23.50;12.27;;;19.90;64.10;;;;;;4999187;28;20168;-95
2021/07/20 00:29:44;;;;;;;20.80;10.40;;;19.90;64.20;;;;;;4999495;28;20478;-96
2021/07/20 00:32:10;;;;;;;17.00;9.30;;;19.90;64.20;;;;;;4999629;28;20187;-96
2021/07/20 00:34:38;;;;;;;19.88;10.60;;;19.90;64.00;;;;;;4999369;28;20172;-96
2021/07/20 00:37:05;;;;;;;18.33;10.75;;;19.80;64.10;;;;;;4999524;28;20179;-96
2021/07/20 00:39:31;;;;;;;16.40;10.02;;;19.90;64.30;;;;;;4999286;28;20255;-96
2021/07/20 00:41:56;;;;;;;16.63;9.40;;;19.80;64.10;;;;;;4998911;28;20176;-96
2021/07/20 00:44:22;;;;;;;13.77;9.60;;;19.80;64.20;;;;;;4998759;28;20226;-96
2021/07/20 00:46:48;;;;;;;20.27;9.87;;;19.70;64.40;;;;;;4998852;28;20282;-95
2021/07/20 00:49:13;;;;;;;15.73;9.97;;;19.60;64.40;;;;;;4998790;28;20178;-96
2021/07/20 00:51:39;;;;;;;19.30;9.77;;;19.60;64.50;;;;;;4998820;28;20194;-96
2021/07/20 00:54:05;;;;;;;14.73;9.80;;;19.60;64.50;;;;;;4998783;28;20180;-95
2021/07/20 00:56:33;;;;;;;17.50;10.30;;;19.60;64.50;;;;;;4998724;28;20172;-96
2021/07/20 00:59:01;;;;;;;14.93;9.98;;;19.60;65.50;;;;;;4998632;28;20195;-96
2021/07/20 01:01:26;;;;;;;20.08;10.82;;;19.60;64.50;;;;;;4999251;28;20184;-95
2021/07/20 01:03:53;;;;;;;15.00;9.37;;;19.60;64.50;;;;;;4994657;28;20203;-94
2021/07/20 01:06:20;;;;;;;14.93;9.88;;;19.30;64.80;;;;;;4997419;28;20160;-94
2021/07/20 01:08:47;;;;;;;16.38;9.32;;;19.40;65.00;;;;;;4997240;28;20230;-95
2021/07/20 01:11:14;;;;;;;17.15;10.65;;;19.20;65.20;;;;;;4997300;28;20182;-95
2021/07/20 01:13:40;;;;;;;20.55;10.73;;;19.30;65.50;;;;;;4998439;28;20178;-94
2021/07/20 01:16:07;;;;;;;16.27;9.35;;;19.30;65.40;;;;;;4998418;28;20210;-94
2021/07/20 01:18:34;;;;;;;18.92;11.32;;;19.40;65.30;;;;;;4998446;28;20188;-94
2021/07/20 01:21:00;;;;;;;15.52;10.05;;;19.30;65.30;;;;;;4998494;28;20194;-96
2021/07/20 01:23:44;;;;;;;20.00;10.93;;;19.20;65.30;;;;;;5000587;28;20160;-96
2021/07/20 01:26:10;;;;;;;22.55;12.07;;;19.20;65.30;;;;;;5002277;28;20431;-95
2021/07/20 01:28:38;;;;;;;15.85;9.85;;;19.20;65.50;;;;;;5002275;28;20255;-96
2021/07/20 01:31:10;;;;;;;17.67;10.73;;;19.10;65.80;;;;;;5001263;28;20211;-96
2021/07/20 01:33:40;;;;;;;16.80;9.02;;;19.10;65.70;;;;;;5001113;28;20202;-96
2021/07/20 01:36:08;;;;;;;15.13;10.55;;;19.20;65.70;;;;;;5001026;28;20156;-96
2021/07/20 01:38:35;;;;;;;15.25;10.35;;;19.10;65.70;;;;;;5000308;28;20207;-95
2021/07/20 01:41:07;;;;;;;18.90;10.23;;;19.30;65.70;;;;;;4998264;28;20199;-95
2021/07/20 01:43:36;;;;;;;16.33;10.77;;;19.20;65.20;;;;;;5000036;28;20187;-96
2021/07/20 01:46:03;;;;;;;19.67;10.07;;;19.20;65.30;;;;;;4999180;28;20168;-95
2021/07/20 01:48:36;;;;;;;16.33;10.32;;;19.20;65.20;;;;;;4999228;28;20195;-95
2021/07/20 01:51:03;;;;;;;23.25;11.25;;;19.00;65.40;;;;;;4999668;28;20161;-96
2021/07/20 01:53:30;;;;;;;15.10;9.13;;;19.00;65.70;;;;;;5000581;28;20175;-95
2021/07/20 01:55:59;;;;;;;15.52;9.65;;;18.90;65.60;;;;;;5000588;28;20244;-96
2021/07/20 01:58:24;;;;;;;18.60;11.43;;;18.90;65.60;;;;;;5000595;28;20235;-95
2021/07/20 02:00:53;;;;;;;23.57;11.20;;;18.90;65.50;;;;;;5000433;28;20164;-96
2021/07/20 02:08:46;;;;;;;20.38;10.13;;;19.00;65.30;;;;;;4981704;28;20187;-95
2021/07/20 02:11:17;;;;;;;20.90;10.55;;;18.90;65.30;;;;;;4981079;28;20177;-96
2021/07/20 02:13:51;;;;;;;15.18;9.38;;;18.90;65.40;;;;;;4981140;28;20176;-95
2021/07/20 02:16:19;;;;;;;17.15;9.23;;;18.80;65.40;;;;;;4981221;28;20175;-96
2021/07/20 02:18:50;;;;;;;14.98;8.65;;;18.90;64.90;;;;;;4980840;28;20177;-95
2021/07/20 02:21:19;;;;;;;16.48;8.98;;;18.80;64.80;;;;;;4980830;28;20243;-95
2021/07/20 02:23:50;;;;;;;16.38;10.00;;;18.80;64.80;;;;;;4980770;28;20203;-96
2021/07/20 02:26:16;;;;;;;16.77;9.10;;;18.90;64.80;;;;;;4980835;28;20197;-96
2021/07/20 02:28:43;;;;;;;18.63;10.30;;;18.90;64.80;;;;;;4980616;28;20195;-95
2021/07/20 02:31:11;;;;;;;16.08;9.10;;;19.00;64.70;;;;;;4941762;28;1221637;-95
2021/07/20 02:33:41;;;;;;;14.70;10.35;;;18.90;64.20;;;;;;4980250;28;20216;-95
2021/07/20 02:36:07;;;;;;;18.08;10.05;;;18.80;64.30;;;;;;4980406;28;20188;-95
2021/07/20 02:38:36;;;;;;;15.93;9.18;;;18.70;64.50;;;;;;4979940;28;20204;-95
2021/07/20 02:41:02;;;;;;;18.23;10.13;;;18.80;64.50;;;;;;4980507;28;20164;-96
2021/07/20 02:43:30;;;;;;;15.73;10.27;;;18.80;64.50;;;;;;4981887;28;20261;-96
2021/07/20 02:45:57;;;;;;;14.32;9.15;;;18.80;64.50;;;;;;4981766;28;20215;-96
2021/07/20 02:48:24;;;;;;;18.48;10.23;;;18.90;64.50;;;;;;4981843;28;20185;-95
2021/07/20 02:50:52;;;;;;;19.13;8.93;;;19.00;64.40;;;;;;4981497;28;20211;-96
2021/07/20 02:53:20;;;;;;;14.98;9.02;;;18.80;64.00;;;;;;4981140;28;20229;-95
2021/07/20 02:55:49;;;;;;;14.55;9.63;;;18.90;64.30;;;;;;4981946;28;20181;-96
2021/07/20 02:58:16;;;;;;;16.80;9.55;;;18.90;64.40;;;;;;4981857;28;20216;-95
2021/07/20 03:00:43;;;;;;;14.43;8.60;;;19.00;64.20;;;;;;4982464;28;20188;-96
2021/07/20 03:03:10;;;;;;;20.90;10.45;;;19.00;64.30;;;;;;4981703;28;20169;-95
2021/07/20 03:05:38;;;;;;;16.48;9.05;;;19.00;64.00;;;;;;4981153;28;20196;-96
2021/07/20 03:08:08;;;;;;;17.60;9.75;;;19.00;64.00;;;;;;4981212;28;20185;-96
2021/07/20 03:10:35;;;;;;;13.77;9.32;;;18.80;63.80;;;;;;4980866;28;20192;-95
2021/07/20 03:13:05;;;;;;;16.88;9.90;;;18.90;64.00;;;;;;4981239;28;20231;-96
2021/07/20 03:15:32;;;;;;;14.65;8.88;;;18.80;64.20;;;;;;4980946;28;20169;-95
2021/07/20 03:18:12;;;;;;;14.18;8.40;;;18.60;64.30;;;;;;4980810;28;20177;-96
2021/07/20 03:20:40;;;;;;;13.25;8.75;;;18.50;65.00;;;;;;4980843;28;20179;-96
2021/07/20 03:23:07;;;;;;;17.83;10.40;;;18.50;65.00;;;;;;4980811;28;20173;-96
2021/07/20 03:25:34;;;;;;;17.67;10.05;;;18.50;65.20;;;;;;4980528;28;20197;-95
2021/07/20 03:28:01;;;;;;;17.20;9.68;;;18.50;65.00;;;;;;4980601;28;20175;-96
2021/07/20 03:30:32;;;;;;;14.80;9.30;;;18.50;65.30;;;;;;4980420;28;20216;-96
2021/07/20 03:33:00;;;;;;;16.40;9.55;;;18.50;65.10;;;;;;4980352;28;20188;-96
2021/07/20 03:35:27;;;;;;;15.13;9.55;;;18.30;65.40;;;;;;4980657;28;20177;-95
2021/07/20 03:37:54;;;;;;;17.70;10.02;;;18.50;65.70;;;;;;4980331;28;20172;-95
2021/07/20 03:40:21;;;;;;;16.92;9.65;;;18.40;65.60;;;;;;4980277;28;20212;-95
2021/07/20 03:42:48;;;;;;;21.48;11.35;;;18.40;65.40;;;;;;4980393;28;20220;-96
2021/07/20 03:45:16;;;;;;;18.33;10.38;;;18.30;65.50;;;;;;4979221;28;20234;-95
2021/07/20 03:47:43;;;;;;;26.00;10.52;;;18.40;65.60;;;;;;4980037;28;20172;-94
2021/07/20 03:50:10;;;;;;;18.17;9.50;;;18.40;65.40;;;;;;4980168;28;20193;-94
2021/07/20 03:52:39;;;;;;;18.50;9.70;;;18.30;65.70;;;;;;4980228;28;20165;-95
2021/07/20 03:55:05;;;;;;;15.85;9.10;;;18.20;66.00;;;;;;4980094;28;20253;-96
2021/07/20 03:57:35;;;;;;;19.92;9.98;;;18.30;66.00;;;;;;4980244;28;20165;-94
2021/07/20 04:00:02;;;;;;;20.67;10.23;;;18.20;66.10;;;;;;4980041;28;20221;-95
2021/07/20 04:02:43;;;;;;;16.20;9.57;;;18.20;66.10;;;;;;4980099;28;20157;-94
2021/07/20 04:05:14;;;;;;;16.67;9.05;;;18.20;65.90;;;;;;4980326;28;20260;-92
2021/07/20 04:07:42;;;;;;;18.52;10.43;;;18.20;66.20;;;;;;4980024;28;20184;-94
2021/07/20 04:10:09;;;;;;;17.20;9.10;;;18.30;66.40;;;;;;4979981;28;20220;-94
2021/07/20 04:12:38;;;;;;;22.50;10.65;;;18.30;66.40;;;;;;4979872;28;20204;-96
2021/07/20 04:15:05;;;;;;;22.77;10.15;;;18.20;66.20;;;;;;4979873;28;20238;-95
2021/07/20 04:17:34;;;;;;;16.35;9.52;;;18.30;66.20;;;;;;4979852;28;20169;-94
2021/07/20 04:20:00;;;;;;;18.05;10.65;;;18.20;66.20;;;;;;4979656;28;20193;-95
2021/07/20 04:22:26;;;;;;;21.67;11.70;;;18.40;66.20;;;;;;4979730;28;20212;-94
2021/07/20 04:24:52;;;;;;;13.38;9.45;;;18.50;66.00;;;;;;4979652;28;20239;-92
2021/07/20 04:27:18;;;;;;;17.50;9.67;;;18.60;65.80;;;;;;4979731;28;20169;-96
2021/07/20 04:29:44;;;;;;;17.55;10.23;;;18.60;65.80;;;;;;4979339;28;20487;-96
2021/07/20 04:32:11;;;;;;;14.63;8.27;;;18.50;65.60;;;;;;4979600;28;20196;-95
2021/07/20 04:34:38;;;;;;;27.02;10.88;;;18.50;65.40;;;;;;4979446;28;20196;-94
2021/07/20 04:37:06;;;;;;;21.00;10.85;;;18.30;65.50;;;;;;4979485;28;20189;-95
2021/07/20 04:39:35;;;;;;;21.73;11.38;;;18.30;65.70;;;;;;4979396;28;20236;-94
2021/07/20 04:42:02;;;;;;;15.63;8.43;;;18.30;65.80;;;;;;4979405;28;20180;-95
2021/07/20 04:44:28;;;;;;;17.00;9.25;;;18.40;65.70;;;;;;4995833;28;20188;-96
2021/07/20 04:46:54;;;;;;;17.37;10.17;;;18.40;65.60;;;;;;4998747;28;20179;-94
2021/07/20 04:49:20;;;;;;;17.93;9.77;;;18.60;65.40;;;;;;4998751;28;20450;-95
2021/07/20 04:51:48;;;;;;;19.88;9.88;;;18.60;65.10;;;;;;4998571;28;20470;-95
2021/07/20 04:54:16;;;;;;;16.58;9.65;;;18.50;65.00;;;;;;4998612;28;20172;-94
2021/07/20 04:56:42;;;;;;;17.23;9.85;;;18.40;65.10;;;;;;4998437;28;20166;-96
2021/07/20 04:59:12;;;;;;;18.25;10.50;;;18.60;65.40;;;;;;4998502;28;20203;-96
2021/07/20 05:01:40;;;;;;;17.85;9.55;;;18.70;65.00;;;;;;4998491;28;20160;-96
2021/07/20 05:04:08;;;;;;;21.15;11.27;;;18.90;64.90;;;;;;4998482;28;20188;-95
2021/07/20 05:06:37;;;;;;;19.67;11.48;;;19.00;64.50;;;;;;4998486;28;20195;-95
2021/07/20 05:09:05;;;;;;;20.63;11.23;;;18.90;64.10;;;;;;4997263;28;20206;-94
2021/07/20 05:11:33;;;;;;;20.83;9.88;;;19.10;63.80;;;;;;4997352;28;20199;-94
2021/07/20 05:13:59;;;;;;;17.15;9.70;;;19.20;63.40;;;;;;4997603;28;20251;-94
2021/07/20 05:16:26;;;;;;;13.90;10.80;;;19.20;63.30;;;;;;4997466;28;20183;-94
2021/07/20 05:18:53;;;;;;;19.23;11.35;;;19.30;63.10;;;;;;4998144;28;20203;-95
2021/07/20 05:21:20;;;;;;;23.13;11.60;;;19.40;63.00;;;;;;4998513;28;20178;-96
2021/07/20 05:23:48;;;;;;;17.80;10.50;;;19.50;63.00;;;;;;4998459;28;20176;-95
2021/07/20 05:26:16;;;;;;;23.70;11.38;;;19.50;62.50;;;;;;4997670;28;21009;-95
2021/07/20 05:28:42;;;;;;;19.27;11.13;;;19.60;62.40;;;;;;4997360;28;20200;-95
2021/07/20 05:31:10;;;;;;;19.40;12.57;;;19.50;62.10;;;;;;4995798;28;20548;-94
2021/07/20 05:33:36;;;;;;;20.15;11.05;;;19.50;61.80;;;;;;4997374;28;20619;-95
2021/07/20 05:36:03;;;;;;;24.20;13.43;;;19.60;62.00;;;;;;4997528;28;20160;-95
2021/07/20 05:38:30;;;;;;;16.83;10.57;;;19.70;62.00;;;;;;4997058;28;20239;-95
2021/07/20 05:40:58;;;;;;;17.77;10.95;;;19.70;61.80;;;;;;4996688;28;20191;-95
2021/07/20 05:43:26;;;;;;;17.65;10.80;;;19.90;61.60;;;;;;4995788;28;20186;-95
2021/07/20 05:45:59;;;;;;;18.30;11.02;;;19.70;61.00;;;;;;4996035;28;20211;-95
2021/07/20 05:48:25;;;;;;;24.25;11.48;;;19.80;61.20;;;;;;4996005;28;20203;-94
2021/07/20 05:50:53;;;;;;;20.73;11.77;;;19.80;61.00;;;;;;4996768;28;20187;-95
2021/07/20 05:53:28;;;;;;;16.27;10.95;;;19.90;61.00;;;;;;4996600;28;20165;-94
2021/07/20 05:55:59;;;;;;;22.73;9.55;;;19.90;60.90;;;;;;4996721;28;20210;-94
2021/07/20 05:58:26;;;;;;;19.23;11.13;;;19.90;60.70;;;;;;4991710;28;20287;-94
2021/07/20 06:01:00;;;;;;;19.55;10.68;;;20.10;60.50;;;;;;4989525;28;20627;-93
2021/07/20 06:03:27;;;;;;;20.23;10.75;;;20.20;60.00;;;;;;4984737;28;20192;-93
2021/07/20 06:05:54;;;;;;;23.90;11.43;;;20.20;59.50;;;;;;4981244;28;20200;-93
2021/07/20 06:08:23;;;;;;;21.58;11.73;;;20.10;59.50;;;;;;4979926;28;20224;-93
2021/07/20 06:10:55;;;;;;;18.58;10.60;;;20.20;59.60;;;;;;4988442;28;20178;-94
2021/07/20 06:13:25;;;;;;;19.70;10.55;;;20.20;59.60;;;;;;4997316;28;20176;-94
2021/07/20 06:15:51;;;;;;;19.38;11.52;;;20.00;58.90;;;;;;4997777;28;20169;-94
2021/07/20 06:18:17;;;;;;;24.90;11.00;;;19.90;59.40;;;;;;4996515;28;20314;-94
2021/07/20 06:20:49;;;;;;;20.13;11.37;;;19.70;59.80;;;;;;4990660;28;20302;-93
2021/07/20 06:23:15;;;;;;;21.05;11.68;;;19.70;60.30;;;;;;4982575;28;20498;-93
2021/07/20 06:25:42;;;;;;;16.58;10.20;;;19.70;60.40;;;;;;4991514;28;20204;-94
2021/07/20 06:28:09;;;;;;;21.10;11.82;;;19.90;60.00;;;;;;5000722;28;20219;-94
2021/07/20 06:30:37;;;;;;;18.20;11.32;;;19.70;59.60;;;;;;4999929;28;20196;-94
2021/07/20 06:33:03;;;;;;;19.35;10.80;;;19.80;60.20;;;;;;4999317;28;20186;-92
2021/07/20 06:35:29;;;;;;;18.08;10.57;;;19.70;60.30;;;;;;4998888;28;20183;-94
2021/07/20 06:37:56;;;;;;;23.87;11.80;;;19.80;60.20;;;;;;4998533;28;20171;-94
2021/07/20 06:40:38;;;;;;;23.33;10.52;;;20.10;59.80;;;;;;5000158;28;20439;-93
2021/07/20 06:43:06;;;;;;;19.13;10.07;;;20.40;58.80;;;;;;4992581;28;20192;-94
2021/07/20 06:45:36;;;;;;;16.95;10.02;;;20.70;57.80;;;;;;4979418;29;20203;-95
2021/07/20 06:48:03;;;;;;;18.33;10.90;;;20.80;56.80;;;;;;4980536;28;20284;-95
2021/07/20 06:50:31;;;;;;;20.95;9.90;;;20.80;56.50;;;;;;4981129;28;20177;-94
2021/07/20 06:53:01;;;;;;;14.90;10.40;;;20.90;56.40;;;;;;4980543;28;20200;-95
2021/07/20 06:55:28;;;;;;;14.83;9.47;;;20.90;56.20;;;;;;4976934;28;20459;-94
2021/07/20 06:57:54;;;;;;;16.45;11.05;;;21.10;56.10;;;;;;4979335;28;20416;-95
2021/07/20 07:00:21;;;;;;;16.50;9.80;;;21.20;55.50;;;;;;4978314;29;20276;-94
2021/07/20 07:02:58;;;;;;;14.23;9.87;;;21.20;55.20;;;;;;4974414;29;20443;-94
2021/07/20 07:05:28;;;;;;;23.77;11.00;;;21.50;55.20;;;;;;4970606;29;20464;-93
2021/07/20 07:07:55;;;;;;;18.00;9.93;;;21.50;54.20;;;;;;4977312;28;20432;-91
2021/07/20 07:10:22;;;;;;;17.13;9.90;;;21.70;53.80;;;;;;4994194;28;20501;-95
2021/07/20 07:12:50;;;;;;;16.03;11.00;;;21.60;53.60;;;;;;5000695;28;20451;-93
2021/07/20 07:15:18;;;;;;;16.90;9.57;;;21.90;53.40;;;;;;4997286;28;20434;-94
2021/07/20 07:17:49;;;;;;;14.77;9.43;;;22.30;52.70;;;;;;4994966;28;20428;-94
2021/07/20 07:20:25;;;;;;;17.23;9.33;;;22.70;52.00;;;;;;4991298;28;20440;-94
2021/07/20 07:22:53;;;;;;;16.93;10.23;;;22.80;51.00;;;;;;4992320;28;20446;-94
2021/07/20 07:25:20;;;;;;;19.00;11.13;;;22.90;51.10;;;;;;4990416;28;20470;-93
2021/07/20 07:27:47;;;;;;;13.53;8.77;;;22.90;50.30;;;;;;4989933;28;20446;-94
2021/07/20 07:30:15;;;;;;;15.40;10.13;;;23.00;50.90;;;;;;4989765;28;20470;-93
2021/07/20 07:32:41;;;;;;;16.77;9.83;;;23.00;50.40;;;;;;4989558;28;20807;-94
2021/07/20 07:35:09;;;;;;;18.93;9.40;;;23.00;49.70;;;;;;4978204;28;20473;-93
2021/07/20 07:37:36;;;;;;;16.23;9.77;;;22.90;49.60;;;;;;4957661;28;20952;-92
2021/07/20 07:40:05;;;;;;;15.20;10.47;;;23.00;50.00;;;;;;4956706;28;20491;-92
2021/07/20 07:42:34;;;;;;;19.30;10.37;;;22.70;49.80;;;;;;4950177;28;20503;-93
2021/07/20 07:45:00;;;;;;;17.27;10.57;;;22.70;50.30;;;;;;4955765;29;20851;-92
2021/07/20 07:47:26;;;;;;;17.43;8.80;;;22.50;50.30;;;;;;4956992;29;20448;-93
2021/07/20 07:49:52;;;;;;;16.80;10.87;;;22.30;50.40;;;;;;4966289;28;20451;-92
2021/07/20 07:52:19;;;;;;;14.27;8.80;;;22.10;50.90;;;;;;4979886;28;20420;-93
2021/07/20 07:54:46;;;;;;;15.37;10.73;;;22.10;51.60;;;;;;4976674;28;20527;-92
2021/07/20 07:57:15;;;;;;;18.93;9.63;;;22.10;51.40;;;;;;4956981;28;20796;-94
2021/07/20 07:59:42;;;;;;;14.23;9.37;;;22.20;51.30;;;;;;4969915;28;20459;-94
2021/07/20 08:02:11;;;;;;;13.33;8.83;;;22.10;51.10;;;;;;4971966;28;20424;-94
2021/07/20 08:04:41;;;;;;;13.73;9.70;;;21.90;51.40;;;;;;4966476;28;20467;-93
2021/07/20 08:07:09;;;;;;;15.47;8.73;;;22.00;51.30;;;;;;4961995;28;20417;-94
2021/07/20 08:09:36;;;;;;;15.40;8.67;;;22.20;51.40;;;;;;4965361;28;20457;-93
2021/07/20 08:12:03;;;;;;;14.07;8.87;;;22.40;51.40;;;;;;4979918;28;20937;-92
2021/07/20 08:14:30;;;;;;;13.33;8.50;;;22.40;51.10;;;;;;4964080;28;20459;-91
2021/07/20 08:17:01;;;;;;;13.73;8.23;;;22.60;50.90;;;;;;4979363;28;20429;-92
2021/07/20 08:19:31;;;;;;;13.60;9.53;;;22.70;50.80;;;;;;4975907;28;20448;-94
2021/07/20 08:22:02;;;;;;;11.87;8.60;;;22.70;50.40;;;;;;4980092;28;20434;-94
2021/07/20 08:24:31;;;;;;;16.20;8.80;;;22.40;49.40;;;;;;4980850;28;20529;-92
2021/07/20 08:27:37;;;;;;;15.33;8.20;;;22.30;49.40;;;;;;4991988;28;20419;-91
2021/07/20 08:30:08;;;;;;;18.33;7.47;;;22.20;50.40;;;;;;4981321;28;20476;-93
2021/07/20 08:33:00;;;;;;;13.43;8.73;;;22.10;51.00;;;;;;4977467;28;20423;-92
2021/07/20 08:35:29;;;;;;;14.43;8.33;;;22.10;51.40;;;;;;4982677;28;21059;-93
2021/07/20 08:38:00;;;;;;;19.13;9.50;;;22.30;51.80;;;;;;4981321;28;20510;-93
2021/07/20 08:40:34;;;;;;;14.57;9.53;;;22.30;51.60;;;;;;4983393;28;20534;-93
2021/07/20 08:43:29;;;;;;;13.23;7.90;;;22.50;51.30;;;;;;4977490;28;20422;-92
2021/07/20 08:46:08;;;;;;;13.70;9.10;;;22.70;50.80;;;;;;4963363;28;20498;-93
2021/07/20 08:48:42;;;;;;;15.63;9.63;;;22.70;49.70;;;;;;4980638;28;20431;-92
2021/07/20 08:51:31;;;;;;;15.27;9.10;;;22.60;49.80;;;;;;4976183;28;20505;-92
2021/07/20 08:54:06;;;;;;;13.70;7.67;;;22.40;50.40;;;;;;4971368;28;20426;-91
2021/07/20 08:56:35;;;;;;;14.90;8.97;;;22.30;50.70;;;;;;4988245;28;20434;-92
2021/07/20 08:59:08;;;;;;;15.30;8.77;;;22.30;51.20;;;;;;4998106;28;20435;-92
2021/07/20 09:01:49;;;;;;;14.80;9.03;;;22.30;51.30;;;;;;4998335;28;20431;-90
2021/07/20 09:04:24;;;;;;;17.50;9.40;;;22.30;51.50;;;;;;4975324;28;20467;-91
2021/07/20 09:07:07;;;;;;;14.70;8.33;;;22.40;51.10;;;;;;4959408;28;20447;-91
2021/07/20 09:09:39;;;;;;;14.17;9.00;;;22.50;51.60;;;;;;4957330;28;20805;-91
2021/07/20 09:12:09;;;;;;;15.80;7.67;;;22.40;51.80;;;;;;4955971;28;20427;-91
2021/07/20 09:14:56;;;;;;;12.07;8.90;;;22.60;50.90;;;;;;4955379;28;20431;-91
2021/07/20 09:18:08;;;;;;;11.10;7.87;;;22.90;50.80;;;;;;4957984;28;20499;-90
2021/07/20 09:20:35;;;;;;;16.83;9.10;;;22.80;50.40;;;;;;4925499;29;20475;-90
2021/07/20 09:23:20;;;;;;;15.60;9.53;;;22.80;49.90;;;;;;4955203;28;20428;-91
2021/07/20 09:26:01;;;;;;;13.93;9.37;;;22.80;49.40;;;;;;4961566;29;20471;-91
2021/07/20 09:28:55;;;;;;;14.33;8.27;;;22.90;50.10;;;;;;4957726;29;20864;-91
2021/07/20 09:31:45;;;;;;;17.57;9.93;;;22.80;49.50;;;;;;4959468;28;20439;-91
2021/07/20 09:34:25;;;;;;;16.73;10.50;;;22.90;49.60;;;;;;4954283;28;20946;-91
2021/07/20 09:36:56;;;;;;;14.67;9.40;;;22.90;49.10;;;;;;4975553;28;20820;-91
2021/07/20 09:39:53;;;;;;;15.57;9.90;;;22.80;49.80;;;;;;4975810;28;20427;-91
2021/07/20 09:42:46;;;;;;;13.20;9.27;;;22.80;50.60;;;;;;4989772;28;20438;-94
2021/07/20 09:45:17;;;;;;;17.80;10.90;;;22.80;51.00;;;;;;4991676;28;20470;-94
2021/07/20 09:47:53;;;;;;;14.53;9.20;;;22.80;50.00;;;;;;4992285;28;20407;-94
2021/07/20 09:50:22;;;;;;;15.97;11.30;;;22.80;50.00;;;;;;4986609;28;20778;-95
2021/07/20 09:53:03;;;;;;;13.17;10.10;;;22.80;50.20;;;;;;4987564;28;20423;-94
2021/07/20 09:55:55;;;;;;;17.20;9.17;;;23.00;50.10;;;;;;4985383;28;20423;-95
2021/07/20 09:58:33;;;;;;;13.00;8.80;;;23.20;50.00;;;;;;4986099;28;20956;-94
2021/07/20 10:01:10;;;;;;;15.70;9.77;;;23.50;49.70;;;;;;4985190;28;20447;-94
2021/07/20 10:04:08;;;;;;;17.03;9.60;;;23.50;49.10;;;;;;4983231;28;20777;-94
2021/07/20 10:06:57;;;;;;;15.30;9.70;;;23.40;48.50;;;;;;4983428;28;20431;-95
2021/07/20 10:10:01;;;;;;;14.77;9.40;;;23.30;48.90;;;;;;4985252;28;20530;-94
2021/07/20 10:13:13;;;;;;;16.53;9.80;;;23.40;49.30;;;;;;4955213;28;20918;-95
2021/07/20 10:15:42;;;;;;;19.17;10.13;;;23.20;49.00;;;;;;4971814;28;20910;-94
2021/07/20 10:18:17;;;;;;;14.60;9.67;;;23.10;49.10;;;;;;4986154;28;20498;-94
2021/07/20 10:20:53;;;;;;;15.80;10.57;;;23.30;49.20;;;;;;4987655;28;20415;-95
2021/07/20 10:23:44;;;;;;;18.57;10.23;;;23.20;49.30;;;;;;4989449;28;20407;-95
2021/07/20 10:26:16;;;;;;;16.90;10.20;;;23.40;49.00;;;;;;4988300;28;20451;-94
2021/07/20 10:29:29;;;;;;;19.83;9.60;;;23.60;49.00;;;;;;4991112;28;20502;-92
2021/07/20 10:32:23;;;;;;;15.33;9.87;;;23.70;49.00;;;;;;4929695;28;20470;-96
2021/07/20 10:34:57;;;;;;;14.90;10.50;;;23.60;48.50;;;;;;4921036;29;20444;-95
2021/07/20 10:37:36;;;;;;;19.83;9.70;;;23.60;48.40;;;;;;4948543;28;20431;-94
2021/07/20 10:40:14;;;;;;;16.87;10.93;;;23.50;48.70;;;;;;4963951;28;20456;-94
2021/07/20 10:42:40;;;;;;;15.97;9.80;;;23.50;48.90;;;;;;4966770;29;20424;-95
2021/07/20 10:45:20;;;;;;;14.77;10.23;;;23.40;49.00;;;;;;4967272;28;20474;-95
2021/07/20 10:48:01;;;;;;;16.63;10.60;;;23.50;48.80;;;;;;4954708;29;20248;-94
2021/07/20 10:50:56;;;;;;;16.13;9.50;;;23.60;49.20;;;;;;4969673;29;20451;-95
2021/07/20 10:53:35;;;;;;;10.80;9.37;;;24.00;48.50;;;;;;4969154;28;20830;-94
2021/07/20 10:56:15;;;;;;;16.87;9.50;;;24.00;48.30;;;;;;4980841;28;20444;-94
2021/07/20 10:58:50;;;;;;;16.20;11.70;;;24.00;48.30;;;;;;4996135;28;20459;-94
2021/07/20 11:01:19;;;;;;;17.00;9.97;;;23.70;48.30;;;;;;4984648;28;20916;-93
2021/07/20 11:04:06;;;;;;;17.83;10.80;;;23.60;48.20;;;;;;4988513;28;20914;-94
2021/07/20 11:06:36;;;;;;;16.30;10.03;;;23.60;48.00;;;;;;4988210;28;20511;-95
2021/07/20 11:09:08;;;;;;;14.17;9.87;;;23.60;47.90;;;;;;4986374;28;20432;-93
2021/07/20 11:11:55;;;;;;;17.43;10.50;;;23.60;48.20;;;;;;5605155;22;20441;-88
2021/07/20 11:14:27;;;;;;;15.40;10.10;;;23.70;48.90;;;;;;5023732;28;20441;-85
2021/07/20 11:16:55;;;;;;;16.20;10.00;;;23.90;49.30;;;;;;4996033;28;20422;-84
2021/07/20 11:19:24;;;;;;;15.30;9.47;;;24.10;49.10;;;;;;4995844;28;20411;-90
2021/07/20 11:21:50;;;;;;;16.43;11.10;;;24.10;47.70;;;;;;5009129;28;20470;-88
2021/07/20 11:24:18;;;;;;;14.40;9.40;;;24.10;47.30;;;;;;4994757;28;20464;-88
2021/07/20 11:26:45;;;;;;;18.10;10.17;;;24.20;47.30;;;;;;4994535;28;20422;-88
2021/07/20 11:29:12;;;;;;;13.40;9.40;;;24.20;47.00;;;;;;4994212;28;20418;-89
2021/07/20 11:31:44;;;;;;;15.20;8.30;;;24.00;46.90;;;;;;5012532;28;20419;-89
2021/07/20 11:34:18;;;;;;;13.63;8.60;;;24.00;47.00;;;;;;5002732;28;20449;-89
2021/07/20 11:36:45;;;;;;;15.53;8.20;;;24.10;46.60;;;;;;4994398;28;20465;-88
2021/07/20 11:39:16;;;;;;;12.20;8.23;;;24.20;46.70;;;;;;4993809;28;20441;-89
2021/07/20 11:42:14;;;;;;;14.03;9.17;;;24.20;46.70;;;;;;4994283;28;20517;-87
2021/07/20 11:44:56;;;;;;;13.80;9.53;;;24.30;46.10;;;;;;4995049;28;20472;-88
2021/07/20 11:47:40;;;;;;;16.63;8.90;;;24.10;47.40;;;;;;4994900;28;20426;-87
2021/07/20 11:50:21;;;;;;;13.97;8.70;;;24.10;47.50;;;;;;4993910;28;20423;-88
2021/07/20 11:52:46;;;;;;;12.60;8.70;;;24.10;47.30;;;;;;4993461;28;20938;-89
2021/07/20 11:55:37;;;;;;;16.97;9.50;;;23.90;48.10;;;;;;4993670;28;20513;-90
2021/07/20 11:58:05;;;;;;;12.50;8.17;;;24.10;47.70;;;;;;4999121;28;20253;-89
2021/07/20 12:01:09;;;;;;;14.57;9.33;;;24.20;47.20;;;;;;4996179;28;20457;-90
2021/07/20 12:03:54;;;;;;;15.10;8.67;;;24.20;46.80;;;;;;4994673;28;20978;-88
2021/07/20 12:07:00;;;;;;;14.83;9.00;;;24.50;46.30;;;;;;4994859;28;20434;-90
2021/07/20 12:10:11;;;;;;;17.93;8.37;;;24.80;46.00;;;;;;4984522;28;20426;-90
2021/07/20 12:12:57;;;;;;;15.60;9.30;;;24.70;46.00;;;;;;4992618;28;20450;-89
2021/07/20 12:15:26;;;;;;;14.93;9.00;;;24.40;46.80;;;;;;4994426;28;20403;-89
2021/07/20 12:17:53;;;;;;;16.33;8.90;;;24.30;47.50;;;;;;4994559;28;20479;-88
2021/07/20 12:20:22;;;;;;;12.00;8.27;;;24.50;47.40;;;;;;4993400;28;20417;-89
2021/07/20 12:22:50;;;;;;;11.30;8.13;;;24.60;47.20;;;;;;4995151;28;20890;-91
2021/07/20 12:25:17;;;;;;;15.80;9.77;;;24.80;46.40;;;;;;4994546;28;20462;-90
2021/07/20 12:27:46;;;;;;;11.87;8.43;;;24.90;46.20;;;;;;4998607;28;20405;-93
2021/07/20 12:30:14;;;;;;;12.23;8.27;;;25.10;46.20;;;;;;5010323;28;20453;-92
2021/07/20 12:32:42;;;;;;;13.23;8.97;;;24.90;47.00;;;;;;4993197;28;20435;-93
2021/07/20 12:35:11;;;;;;;12.87;8.63;;;25.10;46.10;;;;;;4975470;28;20423;-92
2021/07/20 12:37:39;;;;;;;13.30;8.70;;;25.10;46.10;;;;;;4975234;28;20514;-93
2021/07/20 12:40:06;;;;;;;14.90;8.87;;;25.00;46.00;;;;;;4975233;28;20431;-92
2021/07/20 12:42:42;;;;;;;16.93;8.80;;;24.90;46.00;;;;;;4975747;28;20509;-93
2021/07/20 12:45:14;;;;;;;17.53;9.57;;;25.10;45.60;;;;;;4975572;28;20469;-93
2021/07/20 12:47:47;;;;;;;15.37;9.20;;;25.10;46.00;;;;;;4974083;28;20507;-93
2021/07/20 12:50:18;;;;;;;15.20;8.90;;;24.90;46.50;;;;;;4976844;28;20424;-92
2021/07/20 12:52:47;;;;;;;17.03;8.83;;;24.60;47.00;;;;;;4976226;28;20957;-92
2021/07/20 12:55:21;;;;;;;15.10;9.57;;;24.80;47.20;;;;;;4976318;28;20431;-92
2021/07/20 12:57:55;;;;;;;15.00;8.20;;;24.80;46.50;;;;;;4974610;28;20502;-93
2021/07/20 13:00:28;;;;;;;13.80;9.07;;;24.90;47.00;;;;;;4976424;28;20422;-93
2021/07/20 13:02:58;;;;;;;14.10;8.73;;;24.90;46.70;;;;;;4976856;28;20463;-93